Time;durP1;ratioP1;P1;durP2;ratioP2;P2;SDS_P1;SDS_P2;PMS_P1;PMS_P2;Temp;Humidity;BMP_temperature;BMP_pressure;BME280_temperature;BME280_humidity;BME280_pressure;Samples;Min_cycle;Max_cycle;Signal;HPM_P1;HPM_P2
2023/02/28 00:01:38;;;;;;;5.90;3.30;;;;;;;;;;5010987;28;20575;-73
2023/02/28 00:04:05;;;;;;;4.23;3.20;;;;;;;;;;5011768;28;20455;-74
2023/02/28 00:06:33;;;;;;;4.43;3.13;;;;;;;;;;5010797;28;20482;-73
2023/02/28 00:09:00;;;;;;;5.17;3.57;;;;;;;;;;5009764;28;20466;-75
2023/02/28 00:11:27;;;;;;;6.00;4.07;;;;;;;;;;5009645;28;20796;-73
2023/02/28 00:13:55;;;;;;;5.17;3.97;;;;;;;;;;5009892;28;20455;-73
2023/02/28 00:16:22;;;;;;;4.80;3.50;;;;;;;;;;5009317;28;20474;-73
2023/02/28 00:18:49;;;;;;;3.60;3.30;;;;;;;;;;5010099;28;20462;-73
2023/02/28 00:21:17;;;;;;;4.17;2.97;;;;;;;;;;5009857;28;20498;-73
2023/02/28 00:23:45;;;;;;;5.30;3.17;;;;;;;;;;5011058;28;20977;-73
2023/02/28 00:26:13;;;;;;;4.90;3.90;;;;;;;;;;5015672;28;20463;-74
2023/02/28 00:28:40;;;;;;;6.50;3.37;;;;;;;;;;5015724;28;20458;-77
2023/02/28 00:31:07;;;;;;;4.50;4.10;;;;;;;;;;5009434;28;21004;-73
2023/02/28 00:33:34;;;;;;;5.87;3.57;;;;;;;;;;5009276;28;20461;-74
2023/02/28 00:36:08;;;;;;;3.80;3.40;;;;;;;;;;5009155;28;20448;-73
2023/02/28 00:38:35;;;;;;;3.30;3.00;;;;;;;;;;5008997;28;20459;-73
2023/02/28 00:41:04;;;;;;;5.97;3.50;;;;;;;;;;5009265;28;20506;-74
2023/02/28 00:43:32;;;;;;;5.00;3.13;;;;;;;;;;5008965;28;20451;-74
2023/02/28 00:45:59;;;;;;;5.77;4.10;;;;;;;;;;5000076;28;20452;-74
2023/02/28 00:48:26;;;;;;;7.30;4.60;;;;;;;;;;4994788;28;20475;-73
2023/02/28 00:50:53;;;;;;;3.80;3.50;;;;;;;;;;5008595;28;20454;-73
2023/02/28 00:53:20;;;;;;;3.80;3.23;;;;;;;;;;5008921;28;20459;-73
2023/02/28 00:55:47;;;;;;;9.20;4.03;;;;;;;;;;5008622;28;20715;-73
2023/02/28 00:58:16;;;;;;;6.17;3.70;;;;;;;;;;5008502;28;20953;-73
2023/02/28 01:00:43;;;;;;;6.90;4.07;;;;;;;;;;5008372;28;20486;-73
2023/02/28 01:03:10;;;;;;;5.90;4.20;;;;;;;;;;5008443;28;20460;-74
2023/02/28 01:05:37;;;;;;;4.30;3.63;;;;;;;;;;5007176;28;20507;-75
2023/02/28 01:08:04;;;;;;;8.30;4.23;;;;;;;;;;5008547;28;20446;-73
2023/02/28 01:10:32;;;;;;;4.93;3.60;;;;;;;;;;5008664;28;20475;-73
2023/02/28 01:12:59;;;;;;;3.00;2.73;;;;;;;;;;5008539;28;20452;-73
2023/02/28 01:15:27;;;;;;;4.10;3.60;;;;;;;;;;5008362;28;20727;-73
2023/02/28 01:17:54;;;;;;;5.83;3.60;;;;;;;;;;5007761;28;20481;-74
2023/02/28 01:20:21;;;;;;;5.43;3.90;;;;;;;;;;5007215;28;20631;-74
2023/02/28 01:22:48;;;;;;;4.80;3.27;;;;;;;;;;5008317;28;20459;-73
2023/02/28 01:25:16;;;;;;;6.53;3.13;;;;;;;;;;5008516;28;20455;-77
2023/02/28 01:27:43;;;;;;;5.90;4.10;;;;;;;;;;4994341;28;20455;-74
2023/02/28 01:30:11;;;;;;;5.03;3.90;;;;;;;;;;4989331;28;20463;-74
2023/02/28 01:32:39;;;;;;;7.03;3.50;;;;;;;;;;4991599;28;20835;-75
2023/02/28 01:35:07;;;;;;;6.30;3.90;;;;;;;;;;4994658;28;20447;-75
2023/02/28 01:37:34;;;;;;;8.53;4.03;;;;;;;;;;5010715;28;20459;-72
2023/02/28 01:40:01;;;;;;;3.00;2.70;;;;;;;;;;5012342;28;20939;-73
2023/02/28 01:42:28;;;;;;;3.30;2.90;;;;;;;;;;5012273;28;20459;-73
2023/02/28 01:45:00;;;;;;;3.93;3.53;;;;;;;;;;5012202;28;20466;-72
2023/02/28 01:47:28;;;;;;;4.40;2.97;;;;;;;;;;5012064;28;20455;-72
2023/02/28 01:49:57;;;;;;;4.97;3.40;;;;;;;;;;5012322;28;20513;-74
2023/02/28 01:52:24;;;;;;;3.80;3.40;;;;;;;;;;5011120;28;20479;-73
2023/02/28 01:54:53;;;;;;;3.43;3.10;;;;;;;;;;5012204;28;20444;-75
2023/02/28 01:57:23;;;;;;;4.90;3.77;;;;;;;;;;5015445;28;20455;-76
2023/02/28 01:59:53;;;;;;;10.17;3.93;;;;;;;;;;5015848;28;20454;-76
2023/02/28 02:02:22;;;;;;;4.90;3.33;;;;;;;;;;5014389;28;20487;-77
2023/02/28 02:04:52;;;;;;;4.70;3.70;;;;;;;;;;5015082;28;20708;-75
2023/02/28 02:07:21;;;;;;;3.90;3.13;;;;;;;;;;5019428;28;20435;-76
2023/02/28 02:09:48;;;;;;;5.80;4.10;;;;;;;;;;5020400;28;20474;-76
2023/02/28 02:12:22;;;;;;;3.60;3.30;;;;;;;;;;5020382;28;20450;-77
2023/02/28 02:14:58;;;;;;;4.63;3.90;;;;;;;;;;5016285;28;20800;-76
2023/02/28 02:17:33;;;;;;;4.10;3.47;;;;;;;;;;5014511;28;20502;-75
2023/02/28 02:20:15;;;;;;;5.07;3.50;;;;;;;;;;5016523;28;20478;-76
2023/02/28 02:23:05;;;;;;;6.20;4.17;;;;;;;;;;5012874;28;20470;-75
2023/02/28 02:25:34;;;;;;;4.43;3.67;;;;;;;;;;5012287;28;21219;-76
2023/02/28 02:28:07;;;;;;;4.33;3.30;;;;;;;;;;5013168;28;20454;-75
2023/02/28 02:30:56;;;;;;;4.07;3.20;;;;;;;;;;5015204;28;20474;-76
2023/02/28 02:33:37;;;;;;;4.60;4.00;;;;;;;;;;5017588;28;20543;-76
2023/02/28 02:36:08;;;;;;;4.27;3.30;;;;;;;;;;5017722;28;20489;-76
2023/02/28 02:38:38;;;;;;;6.47;3.80;;;;;;;;;;5015683;28;20468;-76
2023/02/28 02:41:08;;;;;;;5.43;3.77;;;;;;;;;;5016397;28;20491;-81
2023/02/28 02:43:37;;;;;;;7.10;3.77;;;;;;;;;;5015364;28;20938;-76
2023/02/28 02:46:06;;;;;;;8.93;4.70;;;;;;;;;;5012876;28;20445;-76
2023/02/28 02:48:35;;;;;;;9.00;3.33;;;;;;;;;;5011462;28;20466;-75
2023/02/28 02:51:05;;;;;;;4.53;3.70;;;;;;;;;;5012249;28;21197;-75
2023/02/28 02:53:36;;;;;;;3.47;2.83;;;;;;;;;;5011273;28;20550;-75
2023/02/28 02:56:05;;;;;;;7.23;4.13;;;;;;;;;;5012439;28;20490;-75
2023/02/28 02:58:33;;;;;;;4.60;4.20;;;;;;;;;;5012973;28;20441;-78
2023/02/28 03:01:02;;;;;;;4.20;3.47;;;;;;;;;;5006414;28;21018;-76
2023/02/28 03:03:29;;;;;;;5.87;4.00;;;;;;;;;;4993238;28;20509;-75
2023/02/28 03:05:57;;;;;;;7.47;4.23;;;;;;;;;;4993671;28;20482;-76
2023/02/28 03:08:24;;;;;;;6.10;3.63;;;;;;;;;;4993576;28;20673;-75
2023/02/28 03:10:53;;;;;;;6.03;3.30;;;;;;;;;;5006850;28;20474;-76
2023/02/28 03:13:38;;;;;;;4.30;3.87;;;;;;;;;;5013431;28;20444;-75
2023/02/28 03:16:24;;;;;;;5.83;3.63;;;;;;;;;;5012759;28;21020;-76
2023/02/28 03:18:56;;;;;;;4.67;3.80;;;;;;;;;;5012307;28;20811;-78
2023/02/28 03:21:27;;;;;;;8.80;5.10;;;;;;;;;;5012971;28;20499;-76
2023/02/28 03:23:57;;;;;;;5.33;3.23;;;;;;;;;;5014135;28;20443;-75
2023/02/28 03:26:28;;;;;;;4.97;3.70;;;;;;;;;;5015512;28;20451;-76
2023/02/28 03:28:59;;;;;;;7.00;4.27;;;;;;;;;;5016530;28;20482;-76
2023/02/28 03:31:28;;;;;;;5.80;4.73;;;;;;;;;;5016129;28;20455;-76
2023/02/28 03:33:58;;;;;;;6.60;4.30;;;;;;;;;;5015031;28;20455;-76
2023/02/28 03:36:28;;;;;;;7.50;4.90;;;;;;;;;;5014765;28;20792;-75
2023/02/28 03:38:57;;;;;;;5.80;4.50;;;;;;;;;;5014137;28;20466;-76
2023/02/28 03:41:28;;;;;;;10.13;4.27;;;;;;;;;;5013191;28;20475;-75
2023/02/28 03:43:57;;;;;;;8.17;5.70;;;;;;;;;;5010581;28;20478;-75
2023/02/28 03:46:26;;;;;;;7.60;5.60;;;;;;;;;;5011465;28;20567;-75
2023/02/28 03:48:56;;;;;;;14.00;5.70;;;;;;;;;;5011883;28;20961;-75
2023/02/28 03:51:24;;;;;;;7.00;4.80;;;;;;;;;;5013718;28;20451;-75
2023/02/28 03:53:52;;;;;;;6.70;4.33;;;;;;;;;;5014526;28;20462;-77
2023/02/28 03:56:20;;;;;;;4.93;4.30;;;;;;;;;;5014686;28;20474;-77
2023/02/28 03:58:53;;;;;;;9.07;5.80;;;;;;;;;;5008995;28;20482;-75
2023/02/28 04:01:22;;;;;;;5.90;4.53;;;;;;;;;;5010244;28;21006;-75
2023/02/28 04:03:51;;;;;;;6.87;4.80;;;;;;;;;;5009678;28;20457;-75
2023/02/28 04:06:19;;;;;;;8.67;5.43;;;;;;;;;;5009617;28;20582;-75
2023/02/28 04:08:46;;;;;;;5.80;4.60;;;;;;;;;;5016895;28;20455;-80
2023/02/28 04:11:18;;;;;;;10.63;5.77;;;;;;;;;;5022041;28;20447;-77
2023/02/28 04:13:45;;;;;;;8.50;5.43;;;;;;;;;;5017527;28;20464;-74
2023/02/28 04:16:14;;;;;;;6.40;5.37;;;;;;;;;;5015689;28;20467;-74
2023/02/28 04:18:42;;;;;;;8.93;4.67;;;;;;;;;;5016703;28;20455;-73
2023/02/28 04:21:10;;;;;;;10.10;5.37;;;;;;;;;;5017461;28;20506;-77
2023/02/28 04:23:37;;;;;;;14.20;6.70;;;;;;;;;;5017211;28;20689;-76
2023/02/28 04:26:05;;;;;;;7.97;5.67;;;;;;;;;;5016631;28;20456;-76
2023/02/28 04:28:32;;;;;;;11.20;5.67;;;;;;;;;;5012357;28;20927;-75
2023/02/28 04:31:00;;;;;;;10.27;5.97;;;;;;;;;;5009149;28;20692;-74
2023/02/28 04:33:28;;;;;;;7.43;5.73;;;;;;;;;;5009861;28;20816;-74
2023/02/28 04:36:02;;;;;;;8.93;5.73;;;;;;;;;;5009621;28;20444;-74
2023/02/28 04:38:30;;;;;;;7.37;5.57;;;;;;;;;;5009245;28;20493;-75
2023/02/28 04:40:58;;;;;;;9.93;6.67;;;;;;;;;;5011032;28;20459;-74
2023/02/28 04:43:25;;;;;;;7.87;5.33;;;;;;;;;;5012590;28;20439;-74
2023/02/28 04:45:52;;;;;;;9.63;6.20;;;;;;;;;;5009735;28;20455;-75
2023/02/28 04:48:19;;;;;;;9.03;6.53;;;;;;;;;;5008247;28;20966;-74
2023/02/28 04:50:48;;;;;;;16.17;9.27;;;;;;;;;;5008918;28;20459;-74
2023/02/28 04:53:15;;;;;;;9.70;6.47;;;;;;;;;;5008867;28;20744;-74
2023/02/28 04:55:42;;;;;;;12.33;8.07;;;;;;;;;;5009027;28;20953;-74
2023/02/28 04:58:09;;;;;;;10.87;6.30;;;;;;;;;;5009970;28;20445;-74
2023/02/28 05:00:36;;;;;;;14.07;8.10;;;;;;;;;;5009697;28;20461;-74
2023/02/28 05:03:03;;;;;;;11.33;7.77;;;;;;;;;;5008906;28;20502;-76
2023/02/28 05:05:30;;;;;;;10.03;7.67;;;;;;;;;;5011240;28;20482;-76
2023/02/28 05:07:59;;;;;;;10.10;5.83;;;;;;;;;;5011316;28;20455;-75
2023/02/28 05:10:26;;;;;;;14.20;6.63;;;;;;;;;;5011330;28;20498;-75
2023/02/28 05:12:53;;;;;;;11.33;8.67;;;;;;;;;;5010840;28;20451;-76
2023/02/28 05:15:20;;;;;;;15.13;8.40;;;;;;;;;;5010491;28;20801;-75
2023/02/28 05:17:47;;;;;;;8.10;7.30;;;;;;;;;;5010425;28;20447;-74
2023/02/28 05:20:14;;;;;;;10.40;7.00;;;;;;;;;;5008460;28;20996;-75
2023/02/28 05:22:42;;;;;;;12.47;6.30;;;;;;;;;;5009708;28;20475;-75
2023/02/28 05:25:12;;;;;;;16.07;7.27;;;;;;;;;;5009317;28;20972;-75
2023/02/28 05:27:39;;;;;;;16.20;8.80;;;;;;;;;;5008531;28;20459;-75
2023/02/28 05:30:10;;;;;;;12.60;7.53;;;;;;;;;;5008297;28;20834;-76
2023/02/28 05:32:37;;;;;;;14.27;8.00;;;;;;;;;;5008800;28;20655;-75
2023/02/28 05:35:04;;;;;;;10.40;6.77;;;;;;;;;;5007608;28;20454;-75
2023/02/28 05:37:31;;;;;;;11.03;8.47;;;;;;;;;;5008929;28;20454;-76
2023/02/28 05:39:59;;;;;;;14.17;7.80;;;;;;;;;;5008494;28;20949;-75
2023/02/28 05:42:28;;;;;;;13.37;7.67;;;;;;;;;;5008393;28;20506;-76
2023/02/28 05:44:55;;;;;;;13.33;8.20;;;;;;;;;;5008856;28;20467;-74
2023/02/28 05:47:22;;;;;;;13.73;8.60;;;;;;;;;;5003811;28;20456;-75
2023/02/28 05:49:49;;;;;;;16.83;8.37;;;;;;;;;;4989895;28;20456;-76
2023/02/28 05:52:16;;;;;;;13.60;8.10;;;;;;;;;;5001575;28;20959;-76
2023/02/28 05:54:43;;;;;;;14.20;9.03;;;;;;;;;;5009038;28;20490;-72
2023/02/28 05:57:10;;;;;;;16.97;9.47;;;;;;;;;;5011501;28;20810;-75
2023/02/28 05:59:39;;;;;;;13.73;9.33;;;;;;;;;;5013585;28;20438;-76
2023/02/28 06:02:07;;;;;;;13.00;7.83;;;;;;;;;;4995742;28;20589;-77
2023/02/28 06:04:34;;;;;;;17.53;9.60;;;;;;;;;;4997537;28;20977;-76
2023/02/28 06:07:01;;;;;;;14.13;9.50;;;;;;;;;;4989448;28;20959;-74
2023/02/28 06:09:28;;;;;;;14.67;9.60;;;;;;;;;;4990563;28;20801;-76
2023/02/28 06:11:55;;;;;;;12.40;8.37;;;;;;;;;;5007964;28;20882;-76
2023/02/28 06:14:23;;;;;;;13.80;8.63;;;;;;;;;;4998690;28;20432;-74
2023/02/28 06:16:51;;;;;;;15.67;11.03;;;;;;;;;;4996689;28;21063;-74
2023/02/28 06:19:18;;;;;;;11.40;8.80;;;;;;;;;;5000098;28;20475;-76
2023/02/28 06:21:46;;;;;;;14.73;9.10;;;;;;;;;;5001943;28;20443;-76
2023/02/28 06:24:13;;;;;;;14.83;10.27;;;;;;;;;;5000705;28;20538;-73
2023/02/28 06:26:40;;;;;;;16.50;8.67;;;;;;;;;;5000377;28;20438;-76
2023/02/28 06:29:08;;;;;;;14.80;7.17;;;;;;;;;;4999875;28;20440;-76
2023/02/28 06:31:35;;;;;;;14.00;8.87;;;;;;;;;;5001586;28;20519;-75
2023/02/28 06:34:03;;;;;;;18.97;9.77;;;;;;;;;;5003067;28;20439;-76
2023/02/28 06:36:30;;;;;;;17.70;8.23;;;;;;;;;;5000900;28;20503;-72
2023/02/28 06:38:58;;;;;;;15.53;8.93;;;;;;;;;;5002611;28;20456;-77
2023/02/28 06:41:26;;;;;;;17.73;10.67;;;;;;;;;;5001690;28;20638;-75
2023/02/28 06:43:53;;;;;;;17.37;9.90;;;;;;;;;;5000542;28;20495;-75
2023/02/28 06:46:21;;;;;;;15.90;10.00;;;;;;;;;;5002866;28;20440;-76
2023/02/28 06:48:48;;;;;;;15.83;10.50;;;;;;;;;;5003433;28;20462;-77
2023/02/28 06:51:17;;;;;;;16.23;9.13;;;;;;;;;;5001117;28;20459;-75
2023/02/28 06:53:45;;;;;;;16.43;9.73;;;;;;;;;;5000813;28;20445;-74
2023/02/28 06:56:13;;;;;;;21.47;10.27;;;;;;;;;;5000100;28;20473;-75
2023/02/28 06:58:40;;;;;;;20.93;11.53;;;;;;;;;;5001260;28;20470;-75
2023/02/28 07:01:08;;;;;;;17.87;10.70;;;;;;;;;;5002880;28;20788;-74
2023/02/28 07:03:36;;;;;;;19.13;10.60;;;;;;;;;;4999616;28;20476;-74
2023/02/28 07:06:03;;;;;;;16.83;10.70;;;;;;;;;;4999551;28;20510;-72
2023/02/28 07:08:32;;;;;;;16.50;11.30;;;;;;;;;;4999107;28;20447;-74
2023/02/28 07:10:59;;;;;;;17.10;10.70;;;;;;;;;;5000603;28;20457;-76
2023/02/28 07:13:26;;;;;;;20.73;12.10;;;;;;;;;;5002803;28;20750;-75
2023/02/28 07:15:58;;;;;;;16.07;10.70;;;;;;;;;;5011048;28;20457;-74
2023/02/28 07:18:25;;;;;;;20.50;9.60;;;;;;;;;;4998933;28;20540;-76
2023/02/28 07:20:52;;;;;;;17.90;10.03;;;;;;;;;;5006693;28;20515;-78
2023/02/28 07:23:20;;;;;;;17.50;10.43;;;;;;;;;;5015839;28;20641;-75
2023/02/28 07:25:48;;;;;;;16.37;10.60;;;;;;;;;;5012454;28;20486;-76
2023/02/28 07:28:16;;;;;;;19.73;10.70;;;;;;;;;;5009696;28;20529;-76
2023/02/28 07:30:43;;;;;;;16.73;8.83;;;;;;;;;;5001207;28;20461;-76
2023/02/28 07:33:10;;;;;;;16.53;9.10;;;;;;;;;;5003993;28;20472;-78
2023/02/28 07:35:38;;;;;;;20.50;11.97;;;;;;;;;;5009816;28;20453;-77
2023/02/28 07:38:07;;;;;;;16.73;10.63;;;;;;;;;;5005329;28;20447;-74
2023/02/28 07:40:34;;;;;;;16.80;10.70;;;;;;;;;;5013917;28;20497;-75
2023/02/28 07:43:03;;;;;;;20.70;10.90;;;;;;;;;;5016443;28;20487;-74
2023/02/28 07:45:31;;;;;;;16.20;10.13;;;;;;;;;;5015480;28;20463;-76
2023/02/28 07:47:58;;;;;;;13.07;8.77;;;;;;;;;;5013989;28;20467;-74
2023/02/28 07:50:27;;;;;;;19.57;12.47;;;;;;;;;;5009235;28;20480;-74
2023/02/28 07:52:54;;;;;;;26.40;13.17;;;;;;;;;;5014192;28;20455;-75
2023/02/28 07:55:21;;;;;;;15.10;11.30;;;;;;;;;;5014258;28;20494;-74
2023/02/28 07:57:48;;;;;;;15.10;9.83;;;;;;;;;;5015961;28;20475;-81
2023/02/28 08:00:17;;;;;;;18.47;11.53;;;;;;;;;;5016797;28;20558;-75
2023/02/28 08:02:44;;;;;;;17.80;10.77;;;;;;;;;;5016320;28;20482;-77
2023/02/28 08:05:12;;;;;;;14.93;9.80;;;;;;;;;;5014012;28;20487;-76
2023/02/28 08:07:39;;;;;;;16.83;10.40;;;;;;;;;;5011588;28;20550;-75
2023/02/28 08:10:06;;;;;;;17.97;10.13;;;;;;;;;;5007352;28;20486;-74
2023/02/28 08:12:34;;;;;;;15.47;10.17;;;;;;;;;;4992452;28;20457;-74
2023/02/28 08:15:01;;;;;;;16.67;11.30;;;;;;;;;;4987861;28;20499;-73
2023/02/28 08:17:29;;;;;;;17.63;8.70;;;;;;;;;;4987858;28;20956;-74
2023/02/28 08:19:57;;;;;;;19.50;11.27;;;;;;;;;;4988869;28;20483;-74
2023/02/28 08:22:24;;;;;;;16.53;12.40;;;;;;;;;;5001695;28;20978;-75
2023/02/28 08:24:51;;;;;;;18.83;10.20;;;;;;;;;;5008813;28;21046;-76
2023/02/28 08:27:18;;;;;;;17.23;10.57;;;;;;;;;;5009559;28;20953;-75
2023/02/28 08:29:45;;;;;;;14.20;8.77;;;;;;;;;;5009932;28;20462;-73
2023/02/28 08:32:12;;;;;;;14.90;9.37;;;;;;;;;;5010229;28;20463;-74
2023/02/28 08:34:41;;;;;;;16.03;10.43;;;;;;;;;;5010906;28;20448;-73
2023/02/28 08:37:09;;;;;;;12.13;9.27;;;;;;;;;;5000204;28;20460;-75
2023/02/28 08:39:37;;;;;;;12.47;8.20;;;;;;;;;;5008545;28;20557;-74
2023/02/28 08:42:05;;;;;;;18.17;9.87;;;;;;;;;;5011728;28;20457;-72
2023/02/28 08:44:32;;;;;;;12.80;9.80;;;;;;;;;;4992035;28;20483;-76
2023/02/28 08:46:59;;;;;;;18.53;10.30;;;;;;;;;;4992583;28;20456;-72
2023/02/28 08:49:26;;;;;;;16.80;10.30;;;;;;;;;;5002117;28;20459;-76
2023/02/28 08:51:55;;;;;;;14.93;10.00;;;;;;;;;;4991822;28;20450;-74
2023/02/28 08:54:22;;;;;;;18.63;10.73;;;;;;;;;;4991380;28;20980;-72
2023/02/28 08:56:50;;;;;;;16.93;10.67;;;;;;;;;;5010657;28;20472;-72
2023/02/28 08:59:17;;;;;;;18.70;11.70;;;;;;;;;;5010375;28;20583;-76
2023/02/28 09:01:44;;;;;;;19.03;11.20;;;;;;;;;;5012065;28;20883;-74
2023/02/28 09:04:12;;;;;;;21.20;12.10;;;;;;;;;;5010564;28;21014;-71
2023/02/28 09:06:39;;;;;;;16.37;11.40;;;;;;;;;;5009844;28;20483;-74
2023/02/28 09:09:09;;;;;;;21.03;11.47;;;;;;;;;;5011680;28;20460;-72
2023/02/28 09:11:36;;;;;;;18.67;11.00;;;;;;;;;;5006350;28;20527;-77
2023/02/28 09:14:04;;;;;;;16.60;10.73;;;;;;;;;;5008718;28;20459;-74
2023/02/28 09:16:31;;;;;;;22.03;11.53;;;;;;;;;;5001670;28;20453;-75
2023/02/28 09:18:59;;;;;;;19.73;10.57;;;;;;;;;;5004201;28;20459;-76
2023/02/28 09:21:26;;;;;;;15.43;10.30;;;;;;;;;;5009539;28;20475;-75
2023/02/28 09:23:53;;;;;;;16.87;11.27;;;;;;;;;;5012557;28;20495;-75
2023/02/28 09:26:23;;;;;;;23.03;12.17;;;;;;;;;;5014142;28;20465;-73
2023/02/28 09:28:50;;;;;;;22.33;12.47;;;;;;;;;;5013662;28;20526;-79
2023/02/28 09:31:20;;;;;;;18.47;11.93;;;;;;;;;;4992729;28;20559;-76
2023/02/28 09:33:47;;;;;;;18.50;13.30;;;;;;;;;;4994487;28;20532;-76
2023/02/28 09:36:14;;;;;;;18.70;11.90;;;;;;;;;;4994269;28;20463;-74
2023/02/28 09:38:42;;;;;;;23.63;12.53;;;;;;;;;;4993476;28;20467;-74
2023/02/28 09:41:13;;;;;;;19.17;12.77;;;;;;;;;;4994009;28;20464;-76
2023/02/28 09:43:43;;;;;;;17.90;11.80;;;;;;;;;;4994365;28;20591;-76
2023/02/28 09:46:15;;;;;;;19.37;14.63;;;;;;;;;;4993664;28;20453;-77
2023/02/28 09:48:44;;;;;;;16.00;11.97;;;;;;;;;;4995329;28;20965;-79
2023/02/28 09:51:17;;;;;;;20.63;11.43;;;;;;;;;;4995209;28;20544;-76
2023/02/28 09:53:44;;;;;;;16.60;12.00;;;;;;;;;;4997639;28;20463;-77
2023/02/28 09:56:13;;;;;;;21.17;11.60;;;;;;;;;;5000462;28;20448;-74
2023/02/28 09:58:43;;;;;;;17.27;11.20;;;;;;;;;;5000044;28;20448;-75
2023/02/28 10:01:13;;;;;;;18.97;11.33;;;;;;;;;;5000390;28;20460;-75
2023/02/28 10:03:41;;;;;;;15.00;10.53;;;;;;;;;;5016891;28;20499;-75
2023/02/28 10:06:13;;;;;;;21.90;10.90;;;;;;;;;;5019681;28;20487;-77
2023/02/28 10:08:44;;;;;;;21.73;12.07;;;;;;;;;;5016462;28;20459;-75
2023/02/28 10:11:13;;;;;;;16.30;11.90;;;;;;;;;;5020229;28;20483;-76
2023/02/28 10:13:49;;;;;;;21.17;11.60;;;;;;;;;;5138431;23;20502;-78
2023/02/28 10:16:18;;;;;;;24.03;12.17;;;;;;;;;;5280823;22;20846;-77
2023/02/28 10:18:48;;;;;;;17.50;11.50;;;;;;;;;;5021168;28;20535;-76
2023/02/28 10:21:19;;;;;;;19.03;11.37;;;;;;;;;;5021679;28;20476;-78
2023/02/28 10:23:47;;;;;;;14.70;10.07;;;;;;;;;;5017959;28;20564;-76
2023/02/28 10:26:15;;;;;;;19.10;10.97;;;;;;;;;;5015877;28;20462;-76
2023/02/28 10:28:44;;;;;;;16.50;8.80;;;;;;;;;;5016126;28;20538;-76
2023/02/28 10:31:13;;;;;;;15.83;10.37;;;;;;;;;;5016882;28;20456;-75
2023/02/28 10:33:40;;;;;;;16.67;10.97;;;;;;;;;;5015747;28;20451;-78
2023/02/28 10:36:07;;;;;;;18.77;10.93;;;;;;;;;;5016626;28;20447;-76
2023/02/28 10:38:35;;;;;;;20.47;12.97;;;;;;;;;;5017593;28;20476;-77
2023/02/28 10:41:06;;;;;;;18.63;12.00;;;;;;;;;;5021351;28;20440;-77
2023/02/28 10:43:33;;;;;;;13.67;10.80;;;;;;;;;;5020979;28;20487;-77
2023/02/28 10:46:03;;;;;;;16.87;11.43;;;;;;;;;;5017678;28;20482;-77
2023/02/28 10:48:38;;;;;;;15.90;11.13;;;;;;;;;;5018739;28;20450;-77
2023/02/28 10:51:06;;;;;;;18.63;11.27;;;;;;;;;;5018881;28;20454;-76
2023/02/28 10:53:35;;;;;;;19.50;12.10;;;;;;;;;;5016508;28;20439;-75
2023/02/28 10:56:04;;;;;;;18.20;10.43;;;;;;;;;;5014464;28;20456;-76
2023/02/28 10:58:32;;;;;;;15.50;10.50;;;;;;;;;;5012673;28;20451;-77
2023/02/28 11:01:00;;;;;;;15.87;10.20;;;;;;;;;;5009600;28;20467;-78
2023/02/28 11:03:32;;;;;;;12.30;10.43;;;;;;;;;;5010272;28;20487;-78
2023/02/28 11:06:00;;;;;;;17.40;11.00;;;;;;;;;;5010682;28;20440;-77
2023/02/28 11:08:27;;;;;;;14.70;11.00;;;;;;;;;;5009966;28;20937;-75
2023/02/28 11:10:58;;;;;;;11.63;10.13;;;;;;;;;;5010129;28;20453;-78
2023/02/28 11:13:34;;;;;;;15.37;10.80;;;;;;;;;;5010175;28;20444;-78
2023/02/28 11:16:03;;;;;;;14.93;11.13;;;;;;;;;;5010100;28;20565;-77
2023/02/28 11:18:36;;;;;;;19.57;12.43;;;;;;;;;;5008832;28;20464;-77
2023/02/28 11:21:03;;;;;;;12.93;10.37;;;;;;;;;;5010032;28;20977;-76
2023/02/28 11:23:32;;;;;;;14.87;11.07;;;;;;;;;;5011637;28;20482;-75
2023/02/28 11:26:00;;;;;;;14.93;11.53;;;;;;;;;;5010831;28;20448;-79
2023/02/28 11:28:30;;;;;;;14.10;11.40;;;;;;;;;;5010477;28;20456;-76
2023/02/28 11:31:02;;;;;;;14.37;11.23;;;;;;;;;;5005104;28;20472;-73
2023/02/28 11:33:30;;;;;;;15.50;11.07;;;;;;;;;;5002101;28;20444;-75
2023/02/28 11:36:00;;;;;;;21.57;13.00;;;;;;;;;;5002344;28;20475;-76
2023/02/28 11:38:27;;;;;;;15.80;11.13;;;;;;;;;;4990200;28;20453;-77
2023/02/28 11:41:04;;;;;;;14.83;11.17;;;;;;;;;;4998760;28;20448;-74
2023/02/28 11:43:40;;;;;;;17.10;10.87;;;;;;;;;;5009485;28;20499;-74
2023/02/28 11:46:11;;;;;;;21.37;12.27;;;;;;;;;;5009690;28;20458;-74
2023/02/28 11:48:42;;;;;;;20.43;12.90;;;;;;;;;;5009487;28;20527;-74
2023/02/28 11:51:16;;;;;;;16.77;11.40;;;;;;;;;;5009487;28;20452;-74
2023/02/28 11:53:52;;;;;;;14.57;11.37;;;;;;;;;;4995286;28;20454;-74
2023/02/28 11:56:21;;;;;;;12.83;11.13;;;;;;;;;;4989985;28;20980;-72
2023/02/28 11:58:55;;;;;;;15.50;12.20;;;;;;;;;;4991329;28;20445;-77
2023/02/28 12:01:28;;;;;;;20.33;12.30;;;;;;;;;;5000326;28;20448;-79
2023/02/28 12:03:59;;;;;;;14.10;10.50;;;;;;;;;;5001211;28;20504;-79
2023/02/28 12:06:34;;;;;;;14.67;10.23;;;;;;;;;;4996967;28;20949;-77
2023/02/28 12:09:06;;;;;;;15.00;11.33;;;;;;;;;;4999944;28;20850;-77
2023/02/28 12:11:41;;;;;;;15.07;12.37;;;;;;;;;;5000004;28;20485;-76
2023/02/28 12:14:21;;;;;;;15.77;10.50;;;;;;;;;;4996718;28;20432;-76
2023/02/28 12:16:55;;;;;;;23.60;12.73;;;;;;;;;;4996479;28;20472;-75
2023/02/28 12:19:27;;;;;;;17.50;12.60;;;;;;;;;;4996400;28;20496;-77
2023/02/28 12:22:02;;;;;;;15.67;11.37;;;;;;;;;;4998020;28;20778;-77
2023/02/28 12:24:46;;;;;;;13.30;11.00;;;;;;;;;;4999396;28;20480;-72
2023/02/28 12:27:15;;;;;;;15.83;11.53;;;;;;;;;;4998214;28;20448;-70
2023/02/28 12:29:44;;;;;;;13.47;11.60;;;;;;;;;;5006809;28;20476;-71
2023/02/28 12:32:14;;;;;;;18.33;10.43;;;;;;;;;;5001650;28;20464;-72
2023/02/28 12:34:44;;;;;;;16.67;11.27;;;;;;;;;;4992437;28;20456;-71
2023/02/28 12:37:16;;;;;;;17.87;12.90;;;;;;;;;;4988825;28;20954;-71
2023/02/28 12:39:45;;;;;;;11.73;10.53;;;;;;;;;;5007230;28;20857;-72
2023/02/28 12:42:15;;;;;;;17.50;11.10;;;;;;;;;;5007583;28;20829;-72
2023/02/28 12:44:44;;;;;;;12.03;10.50;;;;;;;;;;5006925;28;20484;-73
2023/02/28 12:47:14;;;;;;;12.67;10.27;;;;;;;;;;5007452;28;20439;-72
2023/02/28 12:49:46;;;;;;;14.70;11.63;;;;;;;;;;5007196;28;20449;-72
2023/02/28 12:52:16;;;;;;;14.13;10.90;;;;;;;;;;5006874;28;20436;-73
2023/02/28 12:54:46;;;;;;;15.17;10.47;;;;;;;;;;5004675;28;20456;-71
2023/02/28 12:57:15;;;;;;;13.47;10.50;;;;;;;;;;4996589;28;20453;-73
2023/02/28 12:59:44;;;;;;;13.50;11.67;;;;;;;;;;5001309;28;20460;-74
2023/02/28 13:02:23;;;;;;;13.07;11.87;;;;;;;;;;4994673;28;20437;-74
2023/02/28 13:04:59;;;;;;;12.03;10.77;;;;;;;;;;5001947;28;20495;-71
2023/02/28 13:07:46;;;;;;;16.30;11.60;;;;;;;;;;5005853;28;20452;-72
2023/02/28 13:10:15;;;;;;;14.07;12.00;;;;;;;;;;5007367;28;20797;-71
2023/02/28 13:12:48;;;;;;;15.20;11.13;;;;;;;;;;5006944;28;20467;-71
2023/02/28 13:15:21;;;;;;;12.33;11.00;;;;;;;;;;5006254;28;20436;-71
2023/02/28 13:17:49;;;;;;;10.93;9.93;;;;;;;;;;4987452;28;20511;-71
2023/02/28 13:20:18;;;;;;;13.93;11.40;;;;;;;;;;4987570;28;20477;-71
2023/02/28 13:22:48;;;;;;;12.93;11.63;;;;;;;;;;4996444;28;20463;-73
2023/02/28 13:25:34;;;;;;;14.43;10.37;;;;;;;;;;5000334;28;20488;-75
2023/02/28 13:28:03;;;;;;;12.37;10.20;;;;;;;;;;5009895;28;20459;-72
2023/02/28 13:30:49;;;;;;;13.43;11.23;;;;;;;;;;5014521;28;20499;-76
2023/02/28 13:33:24;;;;;;;12.17;10.87;;;;;;;;;;5011069;28;20457;-73
2023/02/28 13:36:02;;;;;;;12.60;10.57;;;;;;;;;;5005453;28;20467;-73
2023/02/28 13:38:37;;;;;;;12.20;10.73;;;;;;;;;;5004246;28;20914;-75
2023/02/28 13:41:23;;;;;;;13.43;10.97;;;;;;;;;;5006070;28;20444;-74
2023/02/28 13:44:11;;;;;;;14.80;12.50;;;;;;;;;;5004053;28;20455;-74
2023/02/28 13:47:00;;;;;;;12.20;10.33;;;;;;;;;;4988881;28;20457;-75
2023/02/28 13:49:28;;;;;;;11.53;10.37;;;;;;;;;;4994677;28;20453;-74
2023/02/28 13:51:57;;;;;;;12.37;11.17;;;;;;;;;;5006325;28;20463;-76
2023/02/28 13:54:35;;;;;;;11.73;10.53;;;;;;;;;;5001598;28;20444;-75
2023/02/28 13:57:09;;;;;;;12.90;10.27;;;;;;;;;;5014259;28;20542;-75
2023/02/28 13:59:39;;;;;;;14.03;10.93;;;;;;;;;;5013465;28;20460;-74
2023/02/28 14:02:27;;;;;;;12.13;10.27;;;;;;;;;;4994796;28;20445;-74
2023/02/28 14:05:02;;;;;;;12.23;10.40;;;;;;;;;;4954353;28;20488;-74
2023/02/28 14:07:31;;;;;;;12.33;10.60;;;;;;;;;;4994609;28;20450;-76
2023/02/28 14:10:05;;;;;;;12.87;9.40;;;;;;;;;;4995145;28;20445;-75
2023/02/28 14:12:50;;;;;;;14.03;9.70;;;;;;;;;;4994880;28;20817;-75
2023/02/28 14:15:36;;;;;;;14.10;10.17;;;;;;;;;;5006844;28;20474;-72
2023/02/28 14:18:05;;;;;;;10.97;9.90;;;;;;;;;;5014251;28;20456;-71
2023/02/28 14:20:34;;;;;;;13.73;10.00;;;;;;;;;;5012334;28;20494;-70
2023/02/28 14:23:04;;;;;;;15.33;10.60;;;;;;;;;;5009514;28;20454;-72
2023/02/28 14:25:35;;;;;;;11.17;8.70;;;;;;;;;;5013974;28;20480;-73
2023/02/28 14:28:10;;;;;;;13.37;9.93;;;;;;;;;;5014301;28;20452;-73
2023/02/28 14:31:04;;;;;;;13.30;10.03;;;;;;;;;;5009646;28;21003;-72
2023/02/28 14:33:37;;;;;;;10.70;9.60;;;;;;;;;;4966839;28;20456;-70
2023/02/28 14:36:07;;;;;;;12.50;10.50;;;;;;;;;;5013929;28;20531;-72
2023/02/28 14:38:37;;;;;;;11.23;9.43;;;;;;;;;;5011643;28;20460;-71
2023/02/28 14:41:07;;;;;;;11.97;10.63;;;;;;;;;;5010769;28;20954;-76
2023/02/28 14:43:35;;;;;;;12.70;11.30;;;;;;;;;;5001882;28;21048;-73